This is the latest recevied weather packets stored in our database for station/object DC4THF-13. If no packets are shown the sender has not sent any weather packets the latest 10 day(s).
| Time | Temp. | Humidity | Pressure | Rain* | Wind** | Luminosity | Snow |
|---|---|---|---|---|---|---|---|
| 1777857743 | 16.67° C | 50% | 1005.8 hPa | 0 mm | - | - | - |
| 1777857139 | 17.22° C | 49% | 1005.7 hPa | 0 mm | - | - | - |
| 1777856536 | 17.78° C | 43% | 1005.4 hPa | 0 mm | - | - | - |
| 1777855993 | 17.78° C | 42% | 1005.4 hPa | 0 mm | - | - | - |
| 1777855390 | 18.33° C | 41% | 1005.4 hPa | 0 mm | - | - | - |
| 1777854787 | 18.89° C | 41% | 1005.4 hPa | 0 mm | - | - | - |
| 1777854184 | 19.44° C | 40% | 1005.4 hPa | 0 mm | - | - | - |
| 1777853580 | 19.44° C | 40% | 1005.3 hPa | 0 mm | - | - | - |
| 1777852977 | 20° C | 39% | 1005.2 hPa | 0 mm | - | - | - |
| 1777852373 | 20° C | 37% | 1005.3 hPa | 0 mm | - | - | - |
| 1777851770 | 20° C | 36% | 1005.4 hPa | 0 mm | - | - | - |
| 1777851166 | 20° C | 35% | 1005.3 hPa | 0 mm | - | - | - |
| 1777850562 | 20.56° C | 35% | 1005.4 hPa | 0 mm | - | - | - |
| 1777849958 | 20.56° C | 34% | 1005.2 hPa | 0 mm | - | - | - |
| 1777849355 | 20.56° C | 35% | 1005.3 hPa | 0 mm | - | - | - |
| 1777848751 | 20.56° C | 35% | 1005.1 hPa | 0 mm | - | - | - |
| 1777848148 | 20.56° C | 36% | 1005 hPa | 0 mm | - | - | - |
| 1777847544 | 20.56° C | 38% | 1005.1 hPa | 0 mm | - | - | - |
| 1777846941 | 20° C | 40% | 1005 hPa | 0 mm | - | - | - |
| 1777846338 | 18.89° C | 44% | 1004.8 hPa | 0 mm | - | - | - |
| 1777845795 | 18.33° C | 47% | 1005 hPa | 0 mm | - | - | - |
| 1777845192 | 17.22° C | 56% | 1004.9 hPa | 0 mm | - | - | - |
| 1777844589 | 17.22° C | 55% | 1004.8 hPa | 0 mm | - | - | - |
| 1777843985 | 17.22° C | 56% | 1004.7 hPa | 0 mm | - | - | - |
| 1777843383 | 17.78° C | 51% | 1004.5 hPa | 0 mm | - | - | - |
* Rain latest hour (hover to see other rain measurements)
** Current wind speed in m/s (hover to see current wind gust speed)